Portada
METAR-TAF:

METAR-TAF

Aeroports :

Aeroport de Sant Sebastià

Sant Sebastià, Espanya

latitud: 43-21N, longitud: 001-48W, altitud: 5 m

Observació

L'informe es va fer fa 22 minuts, a les 20:00 UTC
Vent 3 kt del Oest/Nord-Oest, variant entre Oest/Sud-Oest i Nord-Oest
Temperatura 21°C
Humitat 83%
Pressió 1015 hPa
Visibilitat 10 km o més
Cel ennuvolat a una alçada de 1300 ft

METAR: LESO 012000Z AUTO 29003KT 240V320 9999 BKN013 21/18 Q1015

Hora: 22:22 (20:22 UTC)

Pronòstic

L'informe es va fer fa 3 hores i 22 minuts, a les 17:00 UTC
Pronòstic vàlid del 01 a les 18 UTC al 02 a les 18 UTC
Vent 5 kt amb direcció variable
Visibilitat 10 km o més
Escasses núvols a una alçada de 4000 ft
Temporalment
l' 02 a les 12 UTC al 02 a les 18 UTC
Vent 10 kt del Nord/Nord-Est

TAF: LESO 011700Z 0118/0218 VRB05KT 9999 FEW040 TX25/0215Z TN16/0205Z TEMPO 0212/0218 02010KT

Observacions i pronòstics meteorològics de més de 4000 aeroports (METAR i TAF).

Les estacions disponibles són els punts grocs i vermells al mapa.

Posi el ratolí al punt desitjat per veure el nom de l'estació.

Feu clic per veure les observacions i els pronòstics meteorològics.

Per canviar el mapa: feu clic els botons verds amb una creu de color negre per apropar; al botó verd amb un guió per allunyar la imatge; o en les fletxes verdes per a mapes adjacents.


METAR-TAF: